createdAt,value
2023-04-19T00:01:32.242Z,8.95
2023-04-19T00:04:20.607Z,9.49
2023-04-19T00:07:07.950Z,9.10
2023-04-19T00:09:54.499Z,8.14
2023-04-19T00:12:40.974Z,7.46
2023-04-19T00:15:27.980Z,7.36
2023-04-19T00:18:14.678Z,8.70
2023-04-19T00:21:02.266Z,9.58
2023-04-19T00:23:49.012Z,8.69
2023-04-19T00:26:35.423Z,7.81
2023-04-19T00:29:22.665Z,7.18
2023-04-19T00:32:09.389Z,7.57
2023-04-19T00:34:57.545Z,8.55
2023-04-19T00:37:44.517Z,8.79
2023-04-19T00:40:33.496Z,7.99
2023-04-19T00:43:20.900Z,7.28
2023-04-19T00:46:07.734Z,7.21
2023-04-19T00:48:55.104Z,8.16
2023-04-19T00:51:42.011Z,9.11
2023-04-19T00:54:30.864Z,8.91
2023-04-19T00:57:17.825Z,8.02
2023-04-19T01:00:09.465Z,7.29
2023-04-19T01:02:56.279Z,7.15
2023-04-19T01:05:42.651Z,8.06
2023-04-19T01:08:32.334Z,8.82
2023-04-19T01:11:18.615Z,8.95
2023-04-19T01:14:05.173Z,8.15
2023-04-19T01:16:52.527Z,7.27
2023-04-19T01:19:39.197Z,6.63
2023-04-19T01:22:27.703Z,6.52
2023-04-19T01:25:14.071Z,7.43
2023-04-19T01:28:02.533Z,8.26
2023-04-19T01:30:53.470Z,8.38
2023-04-19T01:33:40.100Z,7.44
2023-04-19T01:36:29.078Z,6.68
2023-04-19T01:39:16.141Z,6.59
2023-04-19T01:42:02.513Z,7.51
2023-04-19T01:44:49.986Z,8.28
2023-04-19T01:47:36.652Z,8.83
2023-04-19T01:50:23.153Z,9.20
2023-04-19T01:53:11.413Z,8.99
2023-04-19T01:55:57.941Z,7.94
2023-04-19T01:58:46.839Z,7.05
2023-04-19T02:01:35.182Z,6.42
2023-04-19T02:04:22.800Z,6.88
2023-04-19T02:07:09.139Z,7.89
2023-04-19T02:09:55.326Z,8.48
2023-04-19T02:12:42.425Z,8.82
2023-04-19T02:15:30.522Z,8.34
2023-04-19T02:18:17.933Z,7.29
2023-04-19T02:21:09.083Z,6.57
2023-04-19T02:23:55.415Z,6.42
2023-04-19T02:26:41.675Z,7.37
2023-04-19T02:29:27.860Z,8.13
2023-04-19T02:32:14.312Z,8.60
2023-04-19T02:35:00.967Z,8.88
2023-04-19T02:37:48.856Z,9.06
2023-04-19T02:40:35.407Z,8.74
2023-04-19T02:43:21.872Z,7.72
2023-04-19T02:46:09.922Z,6.85
2023-04-19T02:48:56.373Z,6.21
2023-04-19T02:51:42.762Z,6.31
2023-04-19T02:54:29.976Z,7.36
2023-04-19T02:57:16.620Z,8.06
2023-04-19T03:00:06.146Z,8.52
2023-04-19T03:02:53.137Z,8.25
2023-04-19T03:05:40.413Z,7.21
2023-04-19T03:08:27.081Z,6.42
2023-04-19T03:11:17.268Z,6.19
2023-04-19T03:14:03.877Z,7.10
2023-04-19T03:16:50.477Z,7.85
2023-04-19T03:19:38.738Z,8.29
2023-04-19T03:22:25.466Z,8.58
2023-04-19T03:25:13.700Z,7.77
2023-04-19T03:28:02.394Z,6.79
2023-04-19T03:31:08.634Z,6.55
2023-04-19T03:33:55.745Z,7.43
2023-04-19T03:36:46.734Z,8.20
2023-04-19T03:39:35.359Z,8.70
2023-04-19T03:42:23.502Z,8.75
2023-04-19T03:45:31.183Z,7.59
2023-04-19T03:48:17.712Z,6.78
2023-04-19T03:51:07.058Z,6.51
2023-04-19T03:53:54.266Z,7.40
2023-04-19T03:56:41.240Z,8.17
2023-04-19T03:59:28.337Z,8.66
2023-04-19T04:02:15.346Z,8.97
2023-04-19T04:05:03.993Z,8.34
2023-04-19T04:07:51.259Z,7.43
2023-04-19T04:10:38.386Z,7.12
2023-04-19T04:13:25.435Z,7.97
2023-04-19T04:16:21.926Z,8.77
2023-04-19T04:19:09.871Z,9.05
2023-04-19T04:21:59.724Z,8.15
2023-04-19T04:24:47.422Z,7.39
2023-04-19T04:27:56.306Z,7.56
2023-04-19T04:30:45.509Z,8.47
2023-04-19T04:33:32.186Z,9.07
2023-04-19T04:36:29.446Z,8.69
2023-04-19T04:39:17.661Z,7.77
2023-04-19T04:42:07.436Z,7.67
2023-04-19T04:44:57.843Z,8.52
2023-04-19T04:47:45.805Z,9.03
2023-04-19T04:50:32.778Z,8.72
2023-04-19T04:53:21.820Z,7.94
2023-04-19T04:56:08.877Z,7.41
2023-04-19T04:58:56.506Z,7.90
2023-04-19T05:01:48.604Z,8.85
2023-04-19T05:04:35.735Z,9.18
2023-04-19T05:07:26.447Z,8.49
2023-04-19T05:10:13.588Z,7.87
2023-04-19T05:13:05.382Z,7.53
2023-04-19T05:15:52.472Z,8.30
2023-04-19T05:18:41.632Z,8.96
2023-04-19T05:21:28.454Z,8.55
2023-04-19T05:24:15.848Z,7.89
2023-04-19T05:27:04.606Z,7.47
2023-04-19T05:29:53.236Z,7.77
2023-04-19T05:32:42.849Z,8.85
2023-04-19T05:35:33.717Z,9.38
2023-04-19T05:38:26.988Z,8.80
2023-04-19T05:41:20.444Z,8.32
2023-04-19T05:44:09.430Z,8.04
2023-04-19T05:46:56.060Z,7.82
2023-04-19T05:50:05.386Z,7.71
2023-04-19T05:52:56.039Z,8.72
2023-04-19T05:55:48.309Z,9.65
2023-04-19T05:58:35.208Z,9.20
2023-04-19T06:01:23.624Z,8.71
2023-04-19T06:04:11.039Z,8.40
2023-04-19T06:06:59.344Z,8.19
2023-04-19T06:09:45.995Z,8.03
2023-04-19T06:12:32.415Z,7.94
2023-04-19T06:15:21.925Z,7.87
2023-04-19T06:18:18.653Z,7.85
2023-04-19T06:21:06.384Z,7.86
2023-04-19T06:23:56.453Z,7.93
2023-04-19T06:26:44.041Z,8.05
2023-04-19T06:29:30.269Z,8.13
2023-04-19T06:32:17.212Z,8.25
2023-04-19T06:35:05.885Z,8.40
2023-04-19T06:37:52.266Z,8.80
2023-04-19T06:40:38.563Z,9.14
2023-04-19T06:43:27.238Z,9.32
2023-04-19T06:46:14.536Z,9.40
2023-04-19T06:49:01.706Z,9.56
2023-04-19T06:51:48.975Z,9.79
2023-04-19T06:54:35.763Z,10.15
2023-04-19T06:57:25.519Z,10.71
2023-04-19T07:00:13.238Z,11.45
2023-04-19T07:03:00.927Z,12.22
2023-04-19T07:05:52.177Z,12.95
2023-04-19T07:08:48.816Z,13.96
2023-04-19T07:11:36.166Z,14.83
2023-04-19T07:14:23.338Z,14.95
2023-04-19T07:17:09.490Z,14.86
2023-04-19T07:19:55.923Z,14.93
2023-04-19T07:22:42.499Z,14.97
2023-04-19T07:25:28.882Z,14.91
2023-04-19T07:28:15.574Z,15.10
2023-04-19T07:31:02.222Z,15.32
2023-04-19T07:33:50.361Z,14.95
2023-04-19T07:36:37.259Z,14.34
2023-04-19T07:39:24.352Z,13.83
2023-04-19T07:42:11.557Z,13.73
2023-04-19T07:44:59.028Z,13.90
2023-04-19T07:47:45.918Z,14.69
2023-04-19T07:50:34.389Z,15.97
2023-04-19T07:53:20.763Z,17.05
2023-04-19T07:56:08.480Z,17.29
2023-04-19T07:59:06.968Z,16.94
2023-04-19T08:01:55.344Z,16.46
2023-04-19T08:04:42.567Z,16.02
2023-04-19T08:07:33.037Z,15.43
2023-04-19T08:10:20.710Z,14.80
2023-04-19T08:13:08.622Z,14.12
2023-04-19T08:18:45.700Z,12.31
2023-04-19T08:21:40.677Z,11.58
2023-04-19T08:24:28.233Z,10.88
2023-04-19T08:27:15.116Z,10.26
2023-04-19T08:30:02.895Z,9.69
2023-04-19T08:32:49.546Z,9.22
2023-04-19T08:35:40.781Z,8.91
2023-04-19T08:38:27.052Z,8.68
2023-04-19T08:41:14.825Z,8.41
2023-04-19T08:44:02.978Z,8.16
2023-04-19T08:46:50.062Z,7.93
2023-04-19T08:49:41.371Z,7.75
2023-04-19T08:52:32.931Z,7.61
2023-04-19T08:55:20.562Z,7.47
2023-04-19T08:58:12.297Z,7.36
2023-04-19T09:01:07.793Z,7.25
2023-04-19T09:04:01.361Z,7.17
2023-04-19T09:06:55.188Z,7.16
2023-04-19T09:09:55.674Z,7.22
2023-04-19T09:13:05.576Z,7.29
2023-04-19T09:15:56.699Z,7.31
2023-04-19T09:19:11.409Z,7.27
2023-04-19T09:22:15.352Z,7.29
2023-04-19T09:28:16.426Z,7.24
2023-04-19T09:31:38.897Z,7.14
2023-04-19T09:34:23.982Z,7.06
2023-04-19T09:37:18.904Z,6.96
2023-04-19T09:40:25.244Z,7.27
2023-04-19T09:46:04.268Z,8.91
2023-04-19T09:48:51.254Z,8.16
2023-04-19T09:51:41.960Z,7.49
2023-04-19T09:54:29.395Z,7.00
2023-04-19T09:57:16.388Z,7.06
2023-04-19T10:00:06.878Z,8.19
2023-04-19T10:03:00.031Z,9.01
2023-04-19T10:05:46.552Z,8.54
2023-04-19T10:08:33.199Z,7.77
2023-04-19T10:11:26.778Z,7.23
2023-04-19T10:14:16.055Z,7.69
2023-04-19T10:17:02.855Z,8.64
2023-04-19T10:20:06.110Z,8.57
2023-04-19T10:22:52.706Z,7.68
2023-04-19T10:25:40.384Z,7.26
2023-04-19T10:28:30.414Z,7.98
2023-04-19T10:31:23.151Z,8.67
2023-04-19T10:34:12.490Z,8.64
2023-04-19T10:36:59.149Z,7.72
2023-04-19T10:39:45.458Z,7.35
2023-04-19T10:43:13.633Z,8.17
2023-04-19T10:46:15.343Z,9.10
2023-04-19T10:49:04.654Z,9.52
2023-04-19T10:51:57.521Z,8.62
2023-04-19T10:54:44.751Z,7.66
2023-04-19T10:58:08.359Z,7.77
2023-04-19T11:01:39.909Z,8.88
2023-04-19T11:04:29.420Z,9.48
2023-04-19T11:07:20.849Z,8.67
2023-04-19T11:10:09.529Z,7.72
2023-04-19T11:12:57.247Z,7.77
2023-04-19T11:15:43.620Z,8.66
2023-04-19T11:18:30.589Z,9.32
2023-04-19T11:21:20.835Z,9.87
2023-04-19T11:24:07.949Z,9.29
2023-04-19T11:26:57.120Z,8.20
2023-04-19T11:29:43.961Z,8.06
2023-04-19T11:32:31.674Z,9.00
2023-04-19T11:35:21.280Z,9.70
2023-04-19T11:38:49.637Z,10.06
2023-04-19T11:41:39.445Z,9.16
2023-04-19T11:44:26.437Z,8.26
2023-04-19T11:47:12.943Z,8.51
2023-04-19T11:50:37.610Z,9.44
2023-04-19T11:53:26.722Z,10.13
2023-04-19T11:56:14.700Z,9.56
2023-04-19T11:59:01.202Z,8.72
2023-04-19T12:01:47.394Z,8.99
2023-04-19T12:04:34.555Z,9.83
2023-04-19T12:07:21.485Z,10.39
2023-04-19T12:10:11.731Z,9.97
2023-04-19T12:12:58.909Z,9.03
2023-04-19T12:15:46.321Z,8.72
2023-04-19T12:18:51.037Z,9.66
2023-04-19T12:21:37.613Z,10.60
2023-04-19T12:24:23.695Z,10.52
2023-04-19T12:27:10.963Z,9.58
2023-04-19T12:29:58.507Z,8.86
2023-04-19T12:32:44.638Z,9.15
2023-04-19T12:35:33.545Z,10.20
2023-04-19T12:38:19.804Z,10.70
2023-04-19T12:41:06.189Z,10.00
2023-04-19T12:43:52.637Z,9.36
2023-04-19T12:46:38.944Z,9.43
2023-04-19T12:49:25.226Z,10.76
2023-04-19T12:52:11.472Z,11.46
2023-04-19T12:54:57.911Z,10.95
2023-04-19T12:57:44.193Z,10.34
2023-04-19T13:00:30.535Z,10.01
2023-04-19T13:03:16.841Z,10.68
2023-04-19T13:06:04.060Z,11.31
2023-04-19T13:08:51.013Z,10.79
2023-04-19T13:11:37.499Z,10.38
2023-04-19T13:14:28.476Z,10.21
2023-04-19T13:17:15.061Z,11.02
2023-04-19T13:20:01.511Z,11.87
2023-04-19T13:22:47.636Z,11.49
2023-04-19T13:25:35.116Z,11.02
2023-04-19T13:28:22.020Z,10.73
2023-04-19T13:31:08.457Z,10.48
2023-04-19T13:33:55.085Z,10.29
2023-04-19T13:36:41.676Z,10.87
2023-04-19T13:39:28.193Z,12.18
2023-04-19T13:42:15.154Z,12.49
2023-04-19T13:45:02.702Z,12.04
2023-04-19T13:47:51.241Z,11.73
2023-04-19T13:50:39.019Z,11.56
2023-04-19T13:53:27.021Z,11.43
2023-04-19T13:56:14.600Z,11.31
2023-04-19T13:59:00.724Z,11.17
2023-04-19T14:01:47.166Z,11.02
2023-04-19T14:04:33.529Z,10.94
2023-04-19T14:07:23.075Z,10.90
2023-04-19T14:10:26.682Z,10.89
2023-04-19T14:13:41.230Z,10.92
2023-04-19T14:16:41.591Z,10.97
2023-04-19T14:19:39.411Z,11.06
2023-04-19T14:22:38.533Z,11.14
2023-04-19T14:25:29.876Z,11.22
2023-04-19T14:28:17.662Z,11.23
2023-04-19T14:31:04.154Z,11.27
2023-04-19T14:33:52.961Z,11.34
2023-04-19T14:36:46.306Z,11.45
2023-04-19T14:39:33.948Z,11.51
2023-04-19T14:42:23.126Z,11.55
2023-04-19T14:45:09.971Z,11.56
2023-04-19T14:47:56.597Z,11.59
2023-04-19T14:50:43.146Z,11.61
2023-04-19T14:53:29.891Z,11.58
2023-04-19T14:56:17.011Z,11.53
2023-04-19T14:59:09.273Z,11.51
2023-04-19T15:01:58.708Z,11.53
2023-04-19T15:04:45.970Z,11.55
2023-04-19T15:07:32.482Z,11.58
2023-04-19T15:10:19.664Z,11.63
2023-04-19T15:13:05.927Z,11.72
2023-04-19T15:15:52.472Z,11.72
2023-04-19T15:18:39.253Z,11.62
2023-04-19T15:21:27.763Z,11.52
2023-04-19T15:24:14.729Z,11.39
2023-04-19T15:27:03.502Z,11.34
2023-04-19T15:29:49.997Z,11.32
2023-04-19T15:32:38.060Z,11.31
2023-04-19T15:35:24.999Z,11.29
2023-04-19T15:38:11.722Z,11.18
2023-04-19T15:41:00.562Z,10.98
2023-04-19T15:43:47.722Z,10.78
2023-04-19T15:46:35.180Z,10.65
2023-04-19T15:49:22.143Z,10.54
2023-04-19T15:52:08.717Z,10.47
2023-04-19T15:54:55.421Z,10.43
2023-04-19T15:57:43.361Z,10.38
2023-04-19T16:00:30.481Z,10.36
2023-04-19T16:03:19.044Z,10.33
2023-04-19T16:06:05.307Z,10.25
2023-04-19T16:08:52.287Z,10.21
2023-04-19T16:11:39.388Z,10.18
2023-04-19T16:14:25.896Z,10.17
2023-04-19T16:17:12.888Z,10.18
2023-04-19T16:20:00.378Z,10.17
2023-04-19T16:22:49.078Z,10.15
2023-04-19T16:25:35.424Z,10.11
2023-04-19T16:28:22.701Z,10.09
2023-04-19T16:31:10.543Z,10.04
2023-04-19T16:33:57.141Z,9.97
2023-04-19T16:36:46.916Z,9.90
2023-04-19T16:39:33.090Z,9.83
2023-04-19T16:42:19.240Z,9.77
2023-04-19T16:45:08.669Z,9.70
2023-04-19T16:47:54.861Z,9.62
2023-04-19T16:50:41.388Z,9.51
2023-04-19T16:53:27.788Z,9.39
2023-04-19T16:56:17.080Z,9.30
2023-04-19T16:59:03.323Z,9.49
2023-04-19T17:01:53.343Z,10.78
2023-04-19T17:04:42.396Z,11.58
2023-04-19T17:07:28.959Z,10.99
2023-04-19T17:10:15.878Z,10.37
2023-04-19T17:13:02.700Z,9.91
2023-04-19T17:15:50.182Z,9.57
2023-04-19T17:18:38.871Z,9.30
2023-04-19T17:21:25.497Z,9.08
2023-04-19T17:24:12.916Z,8.89
2023-04-19T17:27:00.305Z,8.73
2023-04-19T17:29:46.535Z,9.09
2023-04-19T17:32:33.015Z,10.39
2023-04-19T17:35:19.597Z,11.19
2023-04-19T17:38:05.894Z,10.51
2023-04-19T17:40:53.371Z,9.84
2023-04-19T17:43:39.677Z,9.40
2023-04-19T17:46:25.952Z,9.06
2023-04-19T17:49:12.931Z,8.79
2023-04-19T17:51:59.745Z,9.01
2023-04-19T17:54:46.046Z,10.31
2023-04-19T17:57:33.638Z,11.30
2023-04-19T18:00:20.156Z,11.99
2023-04-19T18:03:10.272Z,12.05
2023-04-19T18:05:56.717Z,11.00
2023-04-19T18:08:45.416Z,10.19
2023-04-19T18:11:31.751Z,9.61
2023-04-19T18:14:18.400Z,9.21
2023-04-19T18:17:05.587Z,8.94
2023-04-19T18:19:52.118Z,9.31
2023-04-19T18:22:40.077Z,10.60
2023-04-19T18:25:26.660Z,10.69
2023-04-19T18:28:13.875Z,9.99
2023-04-19T18:31:01.433Z,9.44
2023-04-19T18:33:48.788Z,9.09
2023-04-19T18:36:35.226Z,9.66
2023-04-19T18:39:22.952Z,10.72
2023-04-19T18:42:14.081Z,10.65
2023-04-19T18:45:01.889Z,9.95
2023-04-19T18:47:48.486Z,9.43
2023-04-19T18:50:37.985Z,9.38
2023-04-19T18:53:28.007Z,10.56
2023-04-19T18:56:14.583Z,11.47
2023-04-19T18:59:01.646Z,10.63
2023-04-19T19:01:48.798Z,9.81
2023-04-19T19:04:51.305Z,10.14
2023-04-19T19:07:44.144Z,12.08
2023-04-19T19:11:06.680Z,11.87
2023-04-19T19:13:39.331Z,10.84
2023-04-19T19:16:25.592Z,10.18
2023-04-19T19:19:12.409Z,9.77
2023-04-19T19:21:59.034Z,9.49
2023-04-19T19:24:45.830Z,9.92
2023-04-19T19:27:35.646Z,12.19
2023-04-19T19:30:25.041Z,13.08
2023-04-19T19:33:12.815Z,12.68
2023-04-19T19:35:59.257Z,11.59
2023-04-19T19:38:46.294Z,10.77
2023-04-19T19:42:03.373Z,10.21
2023-04-19T19:44:42.035Z,9.76
2023-04-19T19:47:34.665Z,9.45
2023-04-19T19:53:11.234Z,10.80
2023-04-19T19:55:59.381Z,12.03
2023-04-19T19:58:50.098Z,12.79
2023-04-19T20:01:38.085Z,12.86
2023-04-19T20:04:25.983Z,11.84
2023-04-19T20:10:02.484Z,10.36
2023-04-19T20:12:48.380Z,9.95
2023-04-19T20:15:37.382Z,9.62
2023-04-19T20:18:23.551Z,9.34
2023-04-19T20:21:09.758Z,9.42
2023-04-19T20:23:56.583Z,10.65
2023-04-19T20:26:43.660Z,11.89
2023-04-19T20:29:31.433Z,12.74
2023-04-19T20:32:18.226Z,12.87
2023-04-19T20:35:09.489Z,11.88
2023-04-19T20:38:02.101Z,11.03
2023-04-19T20:40:48.565Z,10.43
2023-04-19T20:43:34.817Z,9.97
2023-04-19T20:46:21.402Z,9.57
2023-04-19T20:49:08.363Z,9.24
2023-04-19T20:51:55.886Z,9.34
2023-04-19T20:54:42.536Z,10.53
2023-04-19T20:57:28.758Z,11.46
2023-04-19T21:00:16.195Z,12.06
2023-04-19T21:03:05.453Z,12.55
2023-04-19T21:06:00.414Z,12.58
2023-04-19T21:08:51.317Z,11.59
2023-04-19T21:11:37.785Z,10.80
2023-04-19T21:14:24.400Z,10.26
2023-04-19T21:17:11.846Z,9.80
2023-04-19T21:19:58.334Z,9.76
2023-04-19T21:22:46.515Z,10.89
2023-04-19T21:25:32.986Z,11.91
2023-04-19T21:28:19.910Z,12.25
2023-04-19T21:31:09.311Z,11.41
2023-04-19T21:33:55.768Z,10.63
2023-04-19T21:36:42.094Z,10.11
2023-04-19T21:39:28.468Z,9.77
2023-04-19T21:42:14.841Z,10.55
2023-04-19T21:45:02.085Z,11.71
2023-04-19T21:47:48.577Z,12.44
2023-04-19T21:50:34.724Z,12.58
2023-04-19T21:53:21.063Z,11.71
2023-04-19T21:56:08.730Z,10.90
2023-04-19T21:58:55.105Z,10.35
2023-04-19T22:01:42.522Z,9.95
2023-04-19T22:04:30.253Z,9.90
2023-04-19T22:07:19.173Z,10.98
2023-04-19T22:10:07.715Z,11.94
2023-04-19T22:12:58.404Z,12.46
2023-04-19T22:15:45.447Z,11.73
2023-04-19T22:18:34.043Z,10.87
2023-04-19T22:21:24.127Z,10.27
2023-04-19T22:24:13.075Z,10.19
2023-04-19T22:27:01.302Z,11.27
2023-04-19T22:29:48.261Z,11.89
2023-04-19T22:32:38.351Z,11.26
2023-04-19T22:35:25.444Z,10.51
2023-04-19T22:38:11.778Z,9.97
2023-04-19T22:40:58.283Z,10.44
2023-04-19T22:43:44.897Z,11.53
2023-04-19T22:46:32.342Z,11.78
2023-04-19T22:49:21.556Z,10.98
2023-04-19T22:52:08.486Z,10.26
2023-04-19T22:54:54.999Z,9.76
2023-04-19T22:57:42.511Z,9.72
2023-04-19T23:00:28.935Z,10.82
2023-04-19T23:03:16.656Z,11.80
2023-04-19T23:06:03.885Z,12.49
2023-04-19T23:08:51.925Z,12.60
2023-04-19T23:11:40.147Z,11.68
2023-04-19T23:14:28.752Z,10.83
2023-04-19T23:17:16.802Z,10.24
2023-04-19T23:20:04.935Z,10.12
2023-04-19T23:22:52.821Z,11.14
2023-04-19T23:25:40.653Z,12.03
2023-04-19T23:28:27.451Z,12.55
2023-04-19T23:31:14.809Z,12.90
2023-04-19T23:34:02.299Z,13.26
2023-04-19T23:36:48.988Z,13.22
2023-04-19T23:39:35.642Z,12.23
2023-04-19T23:42:22.390Z,11.35
2023-04-19T23:45:09.750Z,10.72
2023-04-19T23:47:57.709Z,10.21
2023-04-19T23:50:46.980Z,10.13
2023-04-19T23:53:34.578Z,11.19
2023-04-19T23:56:21.624Z,12.17
2023-04-19T23:59:08.286Z,12.76
